createdAt,value
2024-02-11T00:01:36.275Z,1.57
2024-02-11T00:04:23.164Z,1.63
2024-02-11T00:07:10.823Z,1.60
2024-02-11T00:09:57.649Z,1.53
2024-02-11T00:12:44.458Z,2.03
2024-02-11T00:15:32.492Z,2.00
2024-02-11T00:18:20.540Z,2.17
2024-02-11T00:21:09.355Z,1.90
2024-02-11T00:23:56.189Z,1.80
2024-02-11T00:26:43.195Z,1.90
2024-02-11T00:29:29.987Z,2.17
2024-02-11T00:32:17.103Z,1.73
2024-02-11T00:35:04.885Z,1.93
2024-02-11T00:37:51.876Z,1.80
2024-02-11T00:40:38.699Z,2.07
2024-02-11T00:43:25.736Z,1.93
2024-02-11T00:46:12.536Z,2.27
2024-02-11T00:49:00.522Z,2.23
2024-02-11T00:51:49.240Z,1.70
2024-02-11T00:54:39.108Z,1.63
2024-02-11T00:57:26.016Z,1.70
2024-02-11T01:00:13.881Z,1.77
2024-02-11T01:03:00.702Z,1.90
2024-02-11T01:05:47.555Z,1.87
2024-02-11T01:08:34.425Z,1.70
2024-02-11T01:11:21.428Z,2.17
2024-02-11T01:14:09.463Z,1.90
2024-02-11T01:16:56.614Z,2.00
2024-02-11T01:19:44.789Z,1.83
2024-02-11T01:22:31.785Z,1.63
2024-02-11T01:25:21.510Z,1.70
2024-02-11T01:28:08.389Z,1.90
2024-02-11T01:30:55.402Z,1.47
2024-02-11T01:33:42.247Z,1.80
2024-02-11T01:36:29.304Z,1.83
2024-02-11T01:39:16.772Z,1.63
2024-02-11T01:42:04.394Z,1.90
2024-02-11T01:44:51.203Z,1.50
2024-02-11T01:47:38.277Z,1.70
2024-02-11T01:50:25.778Z,1.80
2024-02-11T01:53:12.864Z,2.33
2024-02-11T01:55:59.780Z,2.20
2024-02-11T01:58:46.691Z,1.93
2024-02-11T02:01:34.501Z,2.60
2024-02-11T02:04:21.340Z,3.30
2024-02-11T02:07:08.375Z,2.67
2024-02-11T02:09:56.841Z,2.13
2024-02-11T02:12:43.723Z,2.20
2024-02-11T02:15:30.619Z,2.70
2024-02-11T02:18:17.560Z,1.90
2024-02-11T02:21:08.006Z,2.33
2024-02-11T02:23:55.090Z,2.10
2024-02-11T02:26:41.855Z,2.20
2024-02-11T02:29:28.659Z,1.70
2024-02-11T02:32:15.772Z,2.00
2024-02-11T02:35:03.442Z,1.60
2024-02-11T02:37:55.582Z,1.40
2024-02-11T02:40:42.710Z,1.87
2024-02-11T02:43:29.776Z,2.07
2024-02-11T02:46:16.605Z,1.90
2024-02-11T02:49:03.486Z,2.00
2024-02-11T02:51:50.287Z,1.67
2024-02-11T02:54:37.239Z,1.93
2024-02-11T02:57:24.007Z,1.93
2024-02-11T03:00:11.444Z,1.90
2024-02-11T03:02:58.408Z,1.50
2024-02-11T03:05:46.954Z,2.00
2024-02-11T03:08:35.197Z,1.50
2024-02-11T03:11:22.087Z,1.70
2024-02-11T03:14:08.969Z,1.80
2024-02-11T03:16:55.925Z,1.70
2024-02-11T03:19:44.800Z,1.73
2024-02-11T03:22:31.701Z,1.90
2024-02-11T03:25:18.821Z,1.73
2024-02-11T03:28:05.907Z,1.57
2024-02-11T03:30:52.714Z,1.93
2024-02-11T03:33:39.700Z,1.80
2024-02-11T03:36:26.587Z,1.60
2024-02-11T03:39:14.007Z,1.77
2024-02-11T03:42:01.027Z,1.80
2024-02-11T03:44:47.792Z,1.70
2024-02-11T03:47:34.740Z,1.70
2024-02-11T03:50:21.738Z,1.60
2024-02-11T03:53:08.956Z,1.40
2024-02-11T03:55:55.844Z,1.80
2024-02-11T03:58:43.881Z,1.87
2024-02-11T04:01:30.737Z,1.53
2024-02-11T04:04:19.030Z,1.53
2024-02-11T04:07:11.479Z,1.73
2024-02-11T04:10:03.474Z,1.97
2024-02-11T04:12:53.551Z,1.80
2024-02-11T04:15:40.566Z,2.00
2024-02-11T04:18:27.475Z,1.57
2024-02-11T04:21:16.739Z,1.80
2024-02-11T04:24:05.608Z,1.80
2024-02-11T04:26:54.824Z,1.87
2024-02-11T04:29:45.440Z,2.17
2024-02-11T04:32:32.307Z,2.00
2024-02-11T04:35:20.395Z,2.03
2024-02-11T04:38:14.274Z,2.27
2024-02-11T04:41:02.557Z,2.40
2024-02-11T04:43:50.351Z,2.50
2024-02-11T04:46:39.547Z,2.13
2024-02-11T04:49:26.378Z,2.13
2024-02-11T04:52:13.911Z,2.43
2024-02-11T04:55:00.756Z,1.53
2024-02-11T04:57:47.589Z,1.87
2024-02-11T05:00:37.513Z,1.90
2024-02-11T05:03:25.325Z,1.83
2024-02-11T05:06:12.290Z,1.80
2024-02-11T05:09:02.029Z,1.90
2024-02-11T05:11:49.504Z,2.10
2024-02-11T05:14:36.516Z,2.03
2024-02-11T05:17:23.372Z,2.27
2024-02-11T05:20:14.785Z,1.70
2024-02-11T05:23:01.788Z,2.23
2024-02-11T05:25:48.862Z,2.17
2024-02-11T05:28:36.141Z,2.50
2024-02-11T05:31:23.196Z,2.20
2024-02-11T05:34:11.535Z,2.37
2024-02-11T05:37:01.339Z,2.60
2024-02-11T05:39:48.550Z,2.17
2024-02-11T05:42:35.460Z,2.30
2024-02-11T05:45:22.296Z,2.63
2024-02-11T05:48:09.514Z,2.40
2024-02-11T05:50:56.468Z,2.40
2024-02-11T05:53:43.314Z,1.93
2024-02-11T05:56:30.240Z,2.10
2024-02-11T05:59:18.530Z,2.13
2024-02-11T06:02:07.089Z,2.53
2024-02-11T06:04:54.693Z,2.27
2024-02-11T06:07:42.334Z,2.77
2024-02-11T06:10:35.268Z,2.23
2024-02-11T06:13:22.728Z,2.57
2024-02-11T06:16:09.596Z,2.90
2024-02-11T06:18:57.466Z,2.90
2024-02-11T06:21:45.056Z,3.30
2024-02-11T06:24:33.249Z,3.10
2024-02-11T06:27:20.445Z,2.70
2024-02-11T06:30:14.524Z,2.77
2024-02-11T06:33:02.336Z,2.83
2024-02-11T06:35:49.198Z,3.20
2024-02-11T06:38:37.997Z,3.33
2024-02-11T06:41:24.912Z,3.60
2024-02-11T06:44:13.409Z,3.70
2024-02-11T06:47:00.364Z,3.80
2024-02-11T06:49:47.261Z,3.97
2024-02-11T06:52:34.225Z,4.40
2024-02-11T06:55:22.152Z,4.57
2024-02-11T06:58:09.082Z,4.47
2024-02-11T07:00:56.145Z,4.67
2024-02-11T07:03:43.032Z,4.57
2024-02-11T07:06:31.667Z,5.23
2024-02-11T07:09:19.766Z,5.73
2024-02-11T07:12:08.144Z,5.20
2024-02-11T07:14:54.985Z,4.93
2024-02-11T07:17:45.976Z,5.80
2024-02-11T07:20:32.884Z,5.67
2024-02-11T07:23:21.505Z,5.57
2024-02-11T07:26:09.378Z,5.67
2024-02-11T07:28:56.442Z,5.47
2024-02-11T07:31:43.397Z,6.17
2024-02-11T07:34:31.052Z,6.00
2024-02-11T07:37:19.901Z,5.47
2024-02-11T07:40:10.698Z,5.80
2024-02-11T07:42:58.307Z,5.83
2024-02-11T07:45:45.222Z,6.50
2024-02-11T07:48:32.685Z,6.57
2024-02-11T07:51:20.240Z,6.03
2024-02-11T07:54:07.063Z,6.37
2024-02-11T07:56:53.920Z,7.13
2024-02-11T07:59:40.760Z,7.27
2024-02-11T08:02:27.616Z,7.60
2024-02-11T08:05:14.558Z,7.10
2024-02-11T08:08:01.486Z,7.53
2024-02-11T08:10:48.312Z,7.37
2024-02-11T08:13:35.314Z,7.83
2024-02-11T08:16:26.960Z,7.83
2024-02-11T08:19:15.692Z,7.83
2024-02-11T08:22:02.696Z,8.10
2024-02-11T08:24:49.635Z,7.53
2024-02-11T08:27:40.388Z,8.07
2024-02-11T08:30:27.925Z,8.10
2024-02-11T08:33:15.443Z,8.03
2024-02-11T08:36:03.231Z,8.40
2024-02-11T08:38:50.092Z,8.87
2024-02-11T08:41:38.055Z,9.50
2024-02-11T08:44:25.350Z,8.90
2024-02-11T08:47:12.385Z,9.40
2024-02-11T08:49:59.184Z,8.57
2024-02-11T08:52:46.101Z,9.27
2024-02-11T08:55:33.218Z,9.17
2024-02-11T08:58:19.987Z,8.93
2024-02-11T09:01:11.689Z,8.83
2024-02-11T09:04:00.932Z,8.33
2024-02-11T09:06:47.918Z,9.63
2024-02-11T09:09:34.934Z,10.83
2024-02-11T09:12:22.007Z,11.77
2024-02-11T09:15:10.514Z,10.20
2024-02-11T09:17:58.228Z,10.23
2024-02-11T09:20:45.576Z,9.97
2024-02-11T09:23:32.543Z,9.10
2024-02-11T09:26:19.421Z,9.33
2024-02-11T09:29:09.209Z,9.33
2024-02-11T09:31:56.272Z,9.63
2024-02-11T09:34:43.190Z,8.63
2024-02-11T09:37:30.393Z,9.47
2024-02-11T09:40:19.654Z,8.93
2024-02-11T09:43:06.956Z,9.03
2024-02-11T09:45:53.879Z,9.33
2024-02-11T09:48:41.414Z,9.73
2024-02-11T09:51:30.408Z,9.30
2024-02-11T09:54:17.861Z,8.37
2024-02-11T09:57:05.081Z,6.53
2024-02-11T09:59:52.302Z,5.40
2024-02-11T10:02:39.986Z,5.30
2024-02-11T10:05:27.805Z,4.50
2024-02-11T10:08:15.397Z,3.27
2024-02-11T10:11:02.839Z,1.80
2024-02-11T10:13:51.189Z,1.40
2024-02-11T10:16:38.809Z,1.17
2024-02-11T10:19:25.987Z,0.80
2024-02-11T10:22:20.176Z,0.67
2024-02-11T10:25:15.817Z,0.60
2024-02-11T10:28:02.921Z,0.80
2024-02-11T10:30:49.714Z,0.50
2024-02-11T10:33:36.858Z,0.53
2024-02-11T10:36:27.317Z,0.60
2024-02-11T10:39:14.158Z,0.57
2024-02-11T10:42:00.926Z,0.70
2024-02-11T10:44:50.783Z,0.70
2024-02-11T10:47:38.252Z,0.53
2024-02-11T10:50:25.537Z,0.50
2024-02-11T10:53:14.169Z,0.60
2024-02-11T10:56:01.094Z,0.50
2024-02-11T10:59:27.552Z,0.50
2024-02-11T11:02:14.947Z,0.50
2024-02-11T11:05:08.145Z,0.60
2024-02-11T11:07:56.324Z,0.63
2024-02-11T11:10:44.425Z,0.40
2024-02-11T11:13:32.818Z,0.60
2024-02-11T11:16:27.857Z,0.50
2024-02-11T11:19:15.904Z,0.50
2024-02-11T11:22:05.784Z,0.60
2024-02-11T11:24:53.930Z,0.60
2024-02-11T11:27:40.820Z,0.50
2024-02-11T11:30:27.756Z,0.50
2024-02-11T11:33:15.074Z,0.40
2024-02-11T11:36:04.226Z,0.50
2024-02-11T11:38:51.331Z,0.50
2024-02-11T11:41:38.411Z,0.50
2024-02-11T11:44:25.721Z,0.47
2024-02-11T11:47:15.010Z,0.40
2024-02-11T11:50:08.371Z,0.40
2024-02-11T11:53:01.930Z,0.60
2024-02-11T11:55:52.546Z,0.50
2024-02-11T11:58:39.753Z,0.40
2024-02-11T12:01:26.648Z,0.50
2024-02-11T12:04:14.150Z,0.33
2024-02-11T12:07:01.454Z,0.40
2024-02-11T12:09:47.391Z,0.30
2024-02-11T12:12:33.488Z,0.20
2024-02-11T12:15:00.550Z,0.50
2024-02-11T12:17:51.590Z,0.40
2024-02-11T12:20:44.323Z,0.47
2024-02-11T12:23:35.269Z,0.70
2024-02-11T12:26:24.127Z,1.43
2024-02-11T12:29:11.939Z,0.70
2024-02-11T12:31:59.111Z,0.50
2024-02-11T12:34:46.013Z,0.50
2024-02-11T12:37:36.838Z,0.50
2024-02-11T12:40:24.533Z,0.60
2024-02-11T12:43:12.273Z,0.60
2024-02-11T12:45:59.132Z,0.70
2024-02-11T12:48:46.875Z,0.77
2024-02-11T12:51:33.954Z,0.60
2024-02-11T12:54:20.968Z,0.80
2024-02-11T12:57:07.761Z,0.60
2024-02-11T12:59:59.042Z,0.60
2024-02-11T13:02:46.858Z,0.70
2024-02-11T13:05:34.192Z,0.70
2024-02-11T13:08:25.053Z,0.60
2024-02-11T13:11:14.031Z,0.60
2024-02-11T13:14:01.161Z,0.67
2024-02-11T13:16:48.105Z,0.70
2024-02-11T13:19:35.019Z,0.80
2024-02-11T13:22:21.775Z,0.90
2024-02-11T13:25:11.983Z,0.73
2024-02-11T13:28:02.219Z,0.90
2024-02-11T13:30:53.536Z,1.00
2024-02-11T13:33:42.799Z,0.87
2024-02-11T13:36:30.033Z,0.90
2024-02-11T13:39:19.244Z,0.80
2024-02-11T13:42:06.411Z,0.97
2024-02-11T13:44:55.530Z,1.33
2024-02-11T13:47:42.732Z,1.13
2024-02-11T13:50:32.363Z,1.00
2024-02-11T13:53:19.253Z,0.90
2024-02-11T13:56:07.294Z,1.00
2024-02-11T13:58:54.285Z,1.10
2024-02-11T14:01:42.464Z,1.13
2024-02-11T14:04:30.202Z,1.20
2024-02-11T14:07:17.178Z,1.00
2024-02-11T14:10:04.227Z,1.27
2024-02-11T14:12:51.167Z,1.40
2024-02-11T14:15:40.671Z,1.40
2024-02-11T14:18:29.208Z,1.40
2024-02-11T14:21:16.686Z,1.30
2024-02-11T14:24:05.297Z,1.50
2024-02-11T14:26:52.421Z,1.30
2024-02-11T14:29:40.002Z,1.40
2024-02-11T14:32:28.394Z,1.30
2024-02-11T14:35:15.790Z,1.47
2024-02-11T14:38:07.167Z,1.43
2024-02-11T14:40:54.961Z,1.57
2024-02-11T14:43:42.148Z,1.60
2024-02-11T14:46:29.496Z,1.63
2024-02-11T14:49:16.454Z,1.73
2024-02-11T14:52:03.470Z,2.13
2024-02-11T14:54:50.347Z,1.90
2024-02-11T14:57:37.322Z,1.80
2024-02-11T15:00:25.830Z,1.90
2024-02-11T15:03:12.662Z,1.90
2024-02-11T15:05:59.756Z,2.20
2024-02-11T15:08:46.790Z,2.50
2024-02-11T15:11:33.727Z,1.80
2024-02-11T15:14:22.919Z,2.17
2024-02-11T15:17:09.946Z,2.37
2024-02-11T15:19:56.919Z,2.40
2024-02-11T15:22:45.422Z,2.33
2024-02-11T15:25:32.510Z,2.30
2024-02-11T15:28:19.987Z,2.23
2024-02-11T15:31:07.041Z,2.60
2024-02-11T15:33:54.328Z,2.20
2024-02-11T15:36:42.914Z,2.83
2024-02-11T15:39:29.930Z,2.33
2024-02-11T15:42:18.197Z,2.97
2024-02-11T15:45:06.800Z,2.60
2024-02-11T15:47:53.712Z,2.80
2024-02-11T15:50:41.082Z,2.43
2024-02-11T15:53:28.037Z,2.70
2024-02-11T15:56:15.211Z,2.40
2024-02-11T15:59:02.099Z,2.77
2024-02-11T16:01:49.397Z,2.53
2024-02-11T16:04:36.966Z,2.67
2024-02-11T16:07:23.991Z,2.77
2024-02-11T16:10:15.349Z,2.60
2024-02-11T16:13:03.462Z,2.70
2024-02-11T16:15:50.937Z,2.67
2024-02-11T16:18:38.671Z,2.77
2024-02-11T16:21:25.559Z,2.80
2024-02-11T16:24:15.062Z,3.23
2024-02-11T16:27:05.558Z,2.27
2024-02-11T16:29:53.355Z,3.03
2024-02-11T16:32:40.424Z,2.90
2024-02-11T16:35:27.926Z,3.30
2024-02-11T16:38:15.014Z,2.93
2024-02-11T16:41:02.158Z,3.33
2024-02-11T16:43:49.098Z,3.13
2024-02-11T16:46:36.277Z,3.43
2024-02-11T16:49:27.548Z,3.47
2024-02-11T16:52:14.858Z,3.23
2024-02-11T16:55:03.087Z,3.17
2024-02-11T16:57:49.908Z,3.07
2024-02-11T17:00:36.859Z,3.40
2024-02-11T17:03:23.720Z,3.40
2024-02-11T17:06:12.959Z,3.17
2024-02-11T17:09:06.227Z,3.43
2024-02-11T17:11:55.764Z,3.73
2024-02-11T17:14:45.415Z,3.30
2024-02-11T17:17:32.574Z,3.30
2024-02-11T17:20:25.416Z,3.50
2024-02-11T17:23:12.884Z,3.60
2024-02-11T17:25:59.843Z,3.50
2024-02-11T17:28:47.331Z,3.00
2024-02-11T17:31:34.133Z,3.43
2024-02-11T17:34:21.351Z,3.30
2024-02-11T17:37:08.356Z,3.10
2024-02-11T17:39:55.500Z,3.40
2024-02-11T17:42:42.828Z,3.10
2024-02-11T17:45:31.713Z,2.97
2024-02-11T17:48:18.884Z,3.80
2024-02-11T17:51:06.108Z,3.53
2024-02-11T17:53:53.054Z,3.43
2024-02-11T17:56:45.559Z,3.43
2024-02-11T17:59:33.944Z,3.40
2024-02-11T18:02:21.192Z,3.67
2024-02-11T18:05:13.254Z,4.00
2024-02-11T18:08:02.047Z,4.10
2024-02-11T18:10:49.131Z,4.40
2024-02-11T18:13:36.034Z,4.07
2024-02-11T18:16:22.918Z,4.10
2024-02-11T18:19:13.100Z,4.07
2024-02-11T18:21:59.952Z,3.80
2024-02-11T18:24:49.541Z,4.30
2024-02-11T18:27:36.358Z,4.50
2024-02-11T18:30:23.300Z,4.37
2024-02-11T18:33:10.762Z,4.37
2024-02-11T18:35:57.844Z,4.10
2024-02-11T18:38:44.784Z,4.33
2024-02-11T18:41:32.275Z,4.20
2024-02-11T18:44:19.230Z,4.77
2024-02-11T18:47:06.286Z,3.83
2024-02-11T18:49:53.651Z,4.03
2024-02-11T18:52:40.787Z,3.63
2024-02-11T18:55:27.613Z,4.23
2024-02-11T18:58:17.260Z,4.13
2024-02-11T19:01:04.302Z,4.63
2024-02-11T19:03:52.092Z,4.30
2024-02-11T19:06:39.169Z,4.63
2024-02-11T19:09:26.121Z,4.63
2024-02-11T19:12:13.414Z,4.93
2024-02-11T19:15:00.430Z,4.90
2024-02-11T19:17:48.978Z,4.53
2024-02-11T19:20:36.878Z,4.30
2024-02-11T19:23:23.874Z,4.50
2024-02-11T19:26:12.673Z,4.10
2024-02-11T19:29:00.509Z,4.43
2024-02-11T19:31:47.877Z,4.30
2024-02-11T19:34:37.879Z,4.40
2024-02-11T19:37:25.860Z,4.30
2024-02-11T19:40:13.249Z,4.40
2024-02-11T19:43:01.636Z,3.90
2024-02-11T19:45:48.501Z,4.30
2024-02-11T19:48:37.956Z,4.40
2024-02-11T19:51:29.305Z,4.00
2024-02-11T19:54:17.259Z,3.90
2024-02-11T19:57:05.019Z,3.87
2024-02-11T19:59:52.020Z,4.03
2024-02-11T20:02:41.353Z,4.20
2024-02-11T20:05:30.740Z,4.43
2024-02-11T20:08:23.671Z,3.90
2024-02-11T20:11:11.303Z,4.13
2024-02-11T20:13:58.253Z,3.70
2024-02-11T20:16:45.941Z,4.07
2024-02-11T20:19:32.870Z,3.87
2024-02-11T20:22:20.203Z,3.90
2024-02-11T20:25:10.707Z,3.70
2024-02-11T20:27:57.716Z,3.63
2024-02-11T20:30:44.868Z,3.70
2024-02-11T20:33:32.035Z,3.53
2024-02-11T20:36:19.930Z,4.30
2024-02-11T20:39:07.219Z,4.00
2024-02-11T20:41:58.013Z,3.77
2024-02-11T20:44:44.963Z,3.80
2024-02-11T20:47:31.869Z,4.57
2024-02-11T20:50:18.794Z,3.57
2024-02-11T20:53:05.896Z,4.10
2024-02-11T20:55:53.022Z,4.23
2024-02-11T20:58:40.041Z,4.00
2024-02-11T21:01:27.458Z,3.97
2024-02-11T21:04:14.356Z,4.50
2024-02-11T21:07:01.257Z,4.30
2024-02-11T21:09:50.846Z,4.33
2024-02-11T21:12:38.139Z,3.83
2024-02-11T21:15:25.160Z,3.90
2024-02-11T21:18:12.728Z,4.27
2024-02-11T21:20:59.888Z,4.47
2024-02-11T21:23:46.667Z,4.07
2024-02-11T21:26:35.641Z,4.00
2024-02-11T21:29:22.540Z,4.27
2024-02-11T21:32:10.666Z,3.73
2024-02-11T21:34:58.425Z,4.13
2024-02-11T21:37:45.314Z,4.63
2024-02-11T21:40:32.173Z,4.03
2024-02-11T21:43:19.805Z,4.43
2024-02-11T21:46:10.194Z,4.80
2024-02-11T21:49:04.151Z,4.00
2024-02-11T21:51:51.967Z,4.67
2024-02-11T21:54:38.927Z,4.33
2024-02-11T21:57:25.815Z,4.37
2024-02-11T22:00:13.659Z,4.43
2024-02-11T22:03:00.827Z,4.47
2024-02-11T22:05:47.886Z,4.70
2024-02-11T22:08:34.959Z,4.40
2024-02-11T22:11:22.010Z,4.57
2024-02-11T22:14:08.908Z,4.73
2024-02-11T22:16:56.360Z,5.20
2024-02-11T22:19:43.537Z,4.93
2024-02-11T22:22:30.300Z,5.27
2024-02-11T22:25:18.569Z,5.70
2024-02-11T22:28:05.690Z,5.07
2024-02-11T22:30:52.683Z,5.07
2024-02-11T22:33:39.590Z,4.93
2024-02-11T22:36:28.605Z,5.17
2024-02-11T22:39:18.944Z,4.90
2024-02-11T22:42:09.126Z,4.77
2024-02-11T22:44:57.725Z,5.07
2024-02-11T22:47:44.753Z,5.03
2024-02-11T22:50:31.871Z,5.10
2024-02-11T22:53:18.972Z,5.03
2024-02-11T22:56:06.326Z,4.90
2024-02-11T22:58:53.189Z,4.70
2024-02-11T23:01:40.340Z,5.00
2024-02-11T23:04:30.156Z,5.27
2024-02-11T23:07:17.241Z,5.47
2024-02-11T23:10:07.519Z,5.00
2024-02-11T23:12:54.366Z,5.60
2024-02-11T23:15:43.025Z,4.67
2024-02-11T23:18:29.967Z,5.33
2024-02-11T23:21:17.097Z,6.00
2024-02-11T23:24:04.796Z,5.23
2024-02-11T23:26:55.747Z,5.80
2024-02-11T23:29:44.394Z,5.40
2024-02-11T23:32:32.150Z,5.50
2024-02-11T23:35:19.159Z,4.93
2024-02-11T23:38:08.119Z,5.57
2024-02-11T23:40:55.010Z,5.63
2024-02-11T23:43:41.906Z,5.67
2024-02-11T23:46:29.535Z,5.77
2024-02-11T23:49:23.548Z,5.87
2024-02-11T23:52:12.283Z,5.70
2024-02-11T23:54:59.299Z,5.10
2024-02-11T23:57:47.494Z,5.50
